Time;durP1;ratioP1;P1;durP2;ratioP2;P2;SDS_P1;SDS_P2;PMS_P1;PMS_P2;Temp;Humidity;BMP_temperature;BMP_pressure;BME280_temperature;BME280_humidity;BME280_pressure;Samples;Min_cycle;Max_cycle;Signal;HPM_P1;HPM_P2
2021/04/23 00:01:50;;;;;;;6.30;3.40;;;8.30;99.90;;;;;;4137251;28;20153;-68
2021/04/23 00:03:57;;;;;;;5.63;3.17;;;8.30;99.90;;;;;;4136455;28;20041;-68
2021/04/23 00:06:27;;;;;;;4.57;3.00;;;8.20;99.90;;;;;;4149783;28;20510;-68
2021/04/23 00:08:28;;;;;;;7.43;3.00;;;8.20;99.90;;;;;;4132335;28;20030;-68
2021/04/23 00:10:29;;;;;;;5.85;3.05;;;8.20;99.90;;;;;;4136616;28;20482;-68
2021/04/23 00:12:29;;;;;;;7.47;3.88;;;8.10;99.90;;;;;;4136922;28;20037;-68
2021/04/23 00:14:45;;;;;;;7.32;3.60;;;8.10;99.90;;;;;;4134133;28;20175;-68
2021/04/23 00:16:47;;;;;;;7.70;3.20;;;8.00;99.90;;;;;;4140523;28;20041;-68
2021/04/23 00:18:48;;;;;;;6.63;3.60;;;7.90;99.90;;;;;;4120754;28;564595;-68
2021/04/23 00:20:49;;;;;;;7.72;3.58;;;7.90;99.90;;;;;;4141506;28;20057;-68
2021/04/23 00:22:50;;;;;;;12.63;3.53;;;7.80;99.90;;;;;;4141813;28;20084;-68
2021/04/23 00:24:50;;;;;;;7.35;3.78;;;7.80;99.90;;;;;;4140507;28;20034;-68
2021/04/23 00:26:52;;;;;;;6.60;3.28;;;7.80;99.90;;;;;;4148816;28;20037;-68
2021/04/23 00:28:53;;;;;;;7.00;3.08;;;7.70;99.90;;;;;;4134995;28;20035;-68
2021/04/23 00:30:55;;;;;;;8.63;3.85;;;7.70;99.90;;;;;;4134452;28;20026;-68
2021/04/23 00:32:56;;;;;;;5.75;3.65;;;7.80;99.90;;;;;;4140592;28;20117;-68
2021/04/23 00:34:56;;;;;;;8.75;4.25;;;7.70;99.90;;;;;;4136272;28;20490;-68
2021/04/23 00:36:57;;;;;;;7.72;3.47;;;7.70;99.90;;;;;;4126865;28;20093;-68
2021/04/23 00:38:58;;;;;;;6.07;3.80;;;7.70;99.90;;;;;;4141035;28;20030;-68
2021/04/23 00:41:03;;;;;;;9.60;3.92;;;7.70;99.90;;;;;;4129392;28;20058;-68
2021/04/23 00:43:04;;;;;;;7.50;4.05;;;7.70;99.90;;;;;;4140094;28;20034;-68
2021/04/23 00:45:06;;;;;;;9.98;3.88;;;7.60;99.90;;;;;;4126483;28;20033;-68
2021/04/23 00:47:07;;;;;;;7.20;3.80;;;7.60;99.90;;;;;;4127033;28;20034;-68
2021/04/23 00:49:08;;;;;;;6.72;4.18;;;7.60;99.90;;;;;;4123485;28;20065;-68
2021/04/23 00:51:12;;;;;;;9.02;4.10;;;7.60;99.90;;;;;;4142112;28;20025;-68
2021/04/23 00:59:09;;;;;;;9.90;4.25;;;7.50;99.90;;;;;;4143739;28;20029;-68
2021/04/23 01:01:14;;;;;;;11.27;4.50;;;7.50;99.90;;;;;;4142216;28;20474;-68
2021/04/23 01:03:16;;;;;;;7.88;4.20;;;7.40;99.90;;;;;;4141421;28;20521;-68
2021/04/23 01:05:20;;;;;;;7.30;3.97;;;7.40;99.90;;;;;;4147601;28;20864;-68
2021/04/23 01:07:21;;;;;;;8.60;4.43;;;7.40;99.90;;;;;;4139708;28;20041;-68
2021/04/23 01:09:26;;;;;;;8.63;4.05;;;7.30;99.90;;;;;;4141294;28;20030;-68
2021/04/23 01:11:27;;;;;;;12.75;4.70;;;7.30;99.90;;;;;;4141469;28;20030;-68
2021/04/23 01:13:31;;;;;;;12.05;4.88;;;7.30;99.90;;;;;;4139932;28;20070;-68
2021/04/23 01:15:32;;;;;;;11.23;4.60;;;7.30;99.90;;;;;;4138460;28;20049;-68
2021/04/23 01:17:32;;;;;;;9.60;4.50;;;7.20;99.90;;;;;;4141419;28;20034;-68
2021/04/23 01:19:33;;;;;;;11.00;5.05;;;7.20;99.90;;;;;;4142755;28;20058;-68
2021/04/23 01:21:35;;;;;;;7.38;3.80;;;7.20;99.90;;;;;;4144842;28;20099;-68
2021/04/23 01:23:38;;;;;;;10.35;4.78;;;7.20;99.90;;;;;;4146759;28;20026;-68
2021/04/23 01:25:39;;;;;;;8.73;4.47;;;7.20;99.90;;;;;;4158583;28;20660;-68
2021/04/23 01:27:40;;;;;;;8.32;3.95;;;7.20;99.90;;;;;;4144655;28;20030;-68
2021/04/23 01:29:41;;;;;;;9.15;4.47;;;7.10;99.90;;;;;;4144094;28;20579;-68
2021/04/23 01:31:45;;;;;;;11.80;4.70;;;7.20;99.90;;;;;;4148000;28;20044;-68
2021/04/23 01:33:51;;;;;;;11.80;5.25;;;7.10;99.90;;;;;;4144074;28;20049;-68
2021/04/23 01:35:52;;;;;;;12.32;5.38;;;7.10;99.90;;;;;;4140860;28;20042;-68
2021/04/23 01:37:53;;;;;;;8.52;4.50;;;7.10;99.90;;;;;;4142406;28;20484;-68
2021/04/23 01:39:56;;;;;;;7.90;4.05;;;7.00;99.90;;;;;;4142886;28;20117;-68
2021/04/23 01:41:58;;;;;;;10.30;4.47;;;7.00;99.90;;;;;;4144190;28;20038;-68
2021/04/23 01:43:59;;;;;;;11.95;4.95;;;6.90;99.90;;;;;;4144008;28;20041;-68
2021/04/23 01:46:00;;;;;;;9.20;4.22;;;7.00;99.90;;;;;;4143602;28;20038;-68
2021/04/23 01:48:01;;;;;;;10.10;4.32;;;6.90;99.90;;;;;;4167297;28;20841;-68
2021/04/23 01:50:05;;;;;;;10.95;5.20;;;6.90;99.90;;;;;;4143471;28;20041;-68
2021/04/23 01:52:11;;;;;;;9.60;4.72;;;6.90;99.90;;;;;;4158719;28;20037;-68
2021/04/23 01:54:13;;;;;;;13.38;5.30;;;6.80;99.90;;;;;;4143803;28;20038;-68
2021/04/23 01:56:14;;;;;;;13.75;4.53;;;6.80;99.90;;;;;;4140465;28;20061;-68
2021/04/23 01:58:14;;;;;;;8.57;4.45;;;6.80;99.90;;;;;;4144245;28;20030;-68
2021/04/23 02:00:28;;;;;;;7.82;4.32;;;6.80;99.90;;;;;;4159120;28;20088;-68
2021/04/23 02:02:29;;;;;;;10.40;4.32;;;6.70;99.90;;;;;;4149853;28;20216;-68
2021/04/23 02:04:30;;;;;;;14.35;5.28;;;6.70;99.90;;;;;;4158308;28;20056;-68
2021/04/23 02:06:31;;;;;;;9.25;4.65;;;6.70;99.90;;;;;;4143499;28;20042;-68
2021/04/23 02:08:32;;;;;;;11.57;5.15;;;6.60;99.90;;;;;;4150136;28;20046;-68
2021/04/23 02:10:40;;;;;;;14.25;5.28;;;6.60;99.90;;;;;;4143833;28;20032;-68
2021/04/23 02:12:41;;;;;;;10.73;5.07;;;6.60;99.90;;;;;;4156141;28;20525;-68
2021/04/23 02:14:42;;;;;;;12.75;4.68;;;6.60;99.90;;;;;;4147919;28;20383;-68
2021/04/23 02:16:43;;;;;;;12.07;4.43;;;6.50;99.90;;;;;;4156066;28;20043;-68
2021/04/23 02:18:45;;;;;;;10.80;4.40;;;6.50;99.90;;;;;;4158744;28;20463;-68
2021/04/23 02:20:46;;;;;;;9.60;4.85;;;6.50;99.90;;;;;;4143489;28;20117;-68
2021/04/23 02:22:48;;;;;;;9.90;4.75;;;6.50;99.90;;;;;;4142003;28;20112;-68
2021/04/23 02:24:48;;;;;;;10.23;5.50;;;6.50;99.90;;;;;;4142253;28;20030;-68
2021/04/23 02:26:49;;;;;;;12.95;5.30;;;6.50;99.90;;;;;;4139701;28;20030;-68
2021/04/23 02:28:51;;;;;;;9.27;4.75;;;6.50;99.90;;;;;;4158433;28;20041;-68
2021/04/23 02:31:05;;;;;;;12.43;5.87;;;6.50;99.90;;;;;;4135455;28;20058;-68
2021/04/23 02:33:07;;;;;;;10.80;4.90;;;6.50;99.90;;;;;;4151588;28;20284;-68
2021/04/23 02:35:11;;;;;;;15.30;5.33;;;6.40;99.90;;;;;;4160156;28;20080;-68
2021/04/23 02:37:11;;;;;;;11.65;4.80;;;6.40;99.90;;;;;;4159794;28;20053;-68
2021/04/23 02:39:14;;;;;;;11.82;5.88;;;6.40;99.90;;;;;;4151492;28;20505;-68
2021/04/23 02:41:16;;;;;;;13.20;5.25;;;6.40;99.90;;;;;;4143976;28;20125;-68
2021/04/23 02:43:24;;;;;;;11.13;5.30;;;6.30;99.90;;;;;;4150887;28;20076;-68
2021/04/23 02:45:28;;;;;;;11.65;5.20;;;6.30;99.90;;;;;;4141884;28;20385;-68
2021/04/23 02:47:29;;;;;;;12.90;5.43;;;6.30;99.90;;;;;;4153859;28;20493;-68
2021/04/23 02:49:29;;;;;;;9.98;5.43;;;6.30;99.90;;;;;;4154261;28;20031;-68
2021/04/23 02:51:32;;;;;;;14.60;5.22;;;6.30;99.90;;;;;;4145461;28;20030;-68
2021/04/23 02:53:34;;;;;;;10.48;4.93;;;6.20;99.90;;;;;;4148661;28;20026;-68
2021/04/23 02:55:35;;;;;;;12.98;5.57;;;6.20;99.90;;;;;;4143236;28;20056;-68
2021/04/23 02:57:36;;;;;;;16.48;5.10;;;6.20;99.90;;;;;;4154782;28;20025;-68
2021/04/23 02:59:36;;;;;;;10.27;4.82;;;6.20;99.90;;;;;;4152206;28;20577;-68
2021/04/23 03:01:43;;;;;;;9.63;5.18;;;6.20;99.90;;;;;;4146855;28;20469;-69
2021/04/23 03:03:45;;;;;;;9.77;4.97;;;6.20;99.90;;;;;;4151847;28;20442;-68
2021/04/23 03:05:46;;;;;;;8.57;5.00;;;6.30;99.90;;;;;;4146819;28;20049;-68
2021/04/23 03:07:50;;;;;;;8.63;4.30;;;6.30;99.90;;;;;;4154989;28;20460;-68
2021/04/23 03:09:51;;;;;;;8.38;4.65;;;6.30;99.90;;;;;;4131186;28;20481;-68
2021/04/23 03:11:51;;;;;;;11.07;5.05;;;6.30;99.90;;;;;;4133350;28;20054;-68
2021/04/23 03:13:55;;;;;;;11.45;5.28;;;6.30;99.90;;;;;;4136773;28;20054;-68
2021/04/23 03:15:57;;;;;;;10.85;4.60;;;6.30;99.90;;;;;;4124947;28;20479;-68
2021/04/23 03:17:58;;;;;;;7.72;4.00;;;6.30;99.90;;;;;;4139806;28;20061;-68
2021/04/23 03:19:58;;;;;;;9.15;5.15;;;6.30;99.90;;;;;;4122071;28;20333;-68
2021/04/23 03:21:59;;;;;;;9.00;4.13;;;6.30;99.90;;;;;;4140859;28;20069;-68
2021/04/23 03:24:00;;;;;;;6.47;4.28;;;6.30;99.90;;;;;;4141814;28;20038;-68
2021/04/23 03:26:04;;;;;;;6.93;3.72;;;6.40;99.90;;;;;;4121654;28;20403;-68
2021/04/23 03:28:06;;;;;;;6.70;4.40;;;6.40;99.90;;;;;;4126218;28;20493;-68
2021/04/23 03:30:11;;;;;;;9.23;5.45;;;6.40;99.90;;;;;;4109349;28;20147;-68
2021/04/23 03:32:12;;;;;;;9.45;4.68;;;6.40;99.90;;;;;;4127609;28;20038;-68
2021/04/23 03:34:14;;;;;;;11.77;4.47;;;6.40;99.90;;;;;;4135009;28;20065;-68
2021/04/23 03:36:15;;;;;;;7.30;4.47;;;6.40;99.90;;;;;;4124919;28;20104;-68
2021/04/23 03:38:16;;;;;;;10.52;4.72;;;6.40;99.90;;;;;;4126476;28;20439;-68
2021/04/23 03:40:20;;;;;;;5.95;4.13;;;6.40;99.90;;;;;;4100937;28;20495;-68
2021/04/23 03:42:21;;;;;;;7.97;4.45;;;6.30;99.90;;;;;;4140961;28;20029;-68
2021/04/23 03:44:21;;;;;;;9.98;4.90;;;6.40;99.90;;;;;;4126625;28;20122;-68
2021/04/23 03:46:22;;;;;;;9.70;4.10;;;6.40;99.90;;;;;;4124824;28;20034;-68
2021/04/23 03:48:23;;;;;;;9.43;4.35;;;6.40;99.90;;;;;;4135987;28;20030;-68
2021/04/23 03:50:30;;;;;;;7.50;4.43;;;6.30;99.90;;;;;;4127690;28;20529;-68
2021/04/23 03:52:30;;;;;;;8.10;4.45;;;6.30;99.90;;;;;;4126958;28;20035;-68
2021/04/23 03:54:31;;;;;;;10.30;4.47;;;6.30;99.90;;;;;;4140824;28;20052;-68
2021/04/23 03:56:32;;;;;;;6.90;4.55;;;6.30;99.90;;;;;;4129570;28;20039;-68
2021/04/23 03:58:33;;;;;;;7.05;3.92;;;6.30;99.90;;;;;;4137562;28;20125;-68
2021/04/23 04:00:41;;;;;;;7.60;4.63;;;6.30;99.90;;;;;;4139471;28;20039;-68
2021/04/23 04:02:42;;;;;;;8.52;5.00;;;6.30;99.90;;;;;;4122917;28;20428;-68
2021/04/23 04:04:43;;;;;;;11.13;5.30;;;6.20;99.90;;;;;;4140819;28;20092;-68
2021/04/23 04:06:45;;;;;;;9.65;5.35;;;6.10;99.90;;;;;;4126298;28;20042;-68
2021/04/23 04:08:47;;;;;;;10.07;4.95;;;6.10;99.90;;;;;;4137430;28;20475;-68
2021/04/23 04:10:48;;;;;;;8.43;5.15;;;6.00;99.90;;;;;;4125079;28;20031;-68
2021/04/23 04:12:49;;;;;;;8.98;5.22;;;6.00;99.90;;;;;;4140897;28;20129;-68
2021/04/23 04:14:49;;;;;;;9.30;5.07;;;6.00;99.90;;;;;;4136169;28;20405;-68
2021/04/23 04:16:50;;;;;;;9.93;5.72;;;6.00;99.90;;;;;;4140966;28;20038;-68
2021/04/23 04:18:50;;;;;;;8.90;5.43;;;6.00;99.90;;;;;;4121376;28;20050;-68
2021/04/23 04:20:52;;;;;;;9.02;5.28;;;5.90;99.90;;;;;;4131856;28;20042;-68
2021/04/23 04:22:53;;;;;;;10.73;5.55;;;6.00;99.90;;;;;;4140319;28;20038;-68
2021/04/23 04:24:54;;;;;;;12.70;5.72;;;5.90;99.90;;;;;;4136673;28;20039;-68
2021/04/23 04:26:54;;;;;;;10.80;5.90;;;5.90;99.90;;;;;;4118654;28;20061;-68
2021/04/23 04:28:55;;;;;;;12.60;5.93;;;5.90;99.90;;;;;;4138624;28;20124;-68
2021/04/23 04:30:56;;;;;;;9.50;5.57;;;5.90;99.90;;;;;;4135394;28;20042;-68
2021/04/23 04:32:57;;;;;;;8.95;5.78;;;6.00;99.90;;;;;;4119251;28;20112;-68
2021/04/23 04:34:58;;;;;;;8.27;4.72;;;6.00;99.90;;;;;;4132531;28;20127;-68
2021/04/23 04:36:59;;;;;;;10.55;5.85;;;6.00;99.90;;;;;;4126315;28;20038;-68
2021/04/23 04:38:59;;;;;;;11.55;5.22;;;6.00;99.90;;;;;;4136710;28;20038;-68
2021/04/23 04:41:00;;;;;;;8.10;4.55;;;6.00;99.90;;;;;;4126145;28;20630;-68
2021/04/23 04:43:01;;;;;;;9.57;5.28;;;6.10;99.90;;;;;;4108425;28;20486;-69
2021/04/23 04:45:06;;;;;;;11.15;5.35;;;6.00;99.90;;;;;;4131122;28;20042;-68
2021/04/23 04:47:07;;;;;;;11.30;5.57;;;6.10;99.90;;;;;;4130834;28;20034;-68
2021/04/23 04:49:07;;;;;;;11.68;5.60;;;6.00;99.90;;;;;;4131194;28;20072;-68
2021/04/23 04:51:09;;;;;;;9.00;5.88;;;6.00;99.90;;;;;;4126295;28;20092;-68
2021/04/23 04:53:10;;;;;;;9.18;5.35;;;6.00;99.90;;;;;;4124274;28;20039;-68
2021/04/23 04:55:13;;;;;;;10.98;5.50;;;6.00;99.90;;;;;;4144846;28;20030;-68
2021/04/23 04:57:13;;;;;;;;;;;6.00;99.90;;;;;;4137345;28;20370;-68
2021/04/23 04:59:14;;;;;;;11.48;6.03;;;6.00;99.90;;;;;;4149663;28;20053;-68
2021/04/23 05:01:15;;;;;;;10.00;5.93;;;6.00;99.90;;;;;;4137542;28;20088;-68
2021/04/23 05:03:16;;;;;;;12.10;6.03;;;6.00;99.90;;;;;;4126343;28;20038;-68
2021/04/23 05:05:17;;;;;;;9.98;5.82;;;6.00;99.90;;;;;;4143660;28;20030;-68
2021/04/23 05:07:18;;;;;;;11.68;5.90;;;6.00;99.90;;;;;;4158694;28;20037;-68
2021/04/23 05:09:18;;;;;;;8.60;5.18;;;6.10;99.90;;;;;;4157552;28;20048;-68
2021/04/23 05:11:19;;;;;;;14.10;5.57;;;6.10;99.90;;;;;;4143287;28;20038;-68
2021/04/23 05:13:20;;;;;;;9.90;6.22;;;6.10;99.90;;;;;;4140765;28;20046;-68
2021/04/23 05:15:20;;;;;;;13.32;5.45;;;6.10;99.90;;;;;;4144976;28;20026;-68
2021/04/23 05:17:21;;;;;;;11.35;5.90;;;6.10;99.90;;;;;;4137070;28;20332;-68
2021/04/23 05:19:21;;;;;;;10.90;5.35;;;6.10;99.90;;;;;;4144665;28;20117;-68
2021/04/23 05:21:24;;;;;;;11.23;6.00;;;6.10;99.90;;;;;;4121474;28;20089;-68
2021/04/23 05:23:25;;;;;;;9.45;6.20;;;6.10;99.90;;;;;;4141187;28;20053;-68
2021/04/23 05:25:26;;;;;;;14.20;6.78;;;6.10;99.90;;;;;;4144497;28;20037;-68
2021/04/23 05:27:27;;;;;;;14.18;7.05;;;6.10;99.90;;;;;;4145588;28;20062;-68
2021/04/23 05:29:28;;;;;;;13.15;7.35;;;6.20;99.90;;;;;;4136030;28;20041;-68
2021/04/23 05:31:28;;;;;;;15.25;7.10;;;6.20;99.90;;;;;;4145106;28;20037;-68
2021/04/23 05:33:29;;;;;;;12.07;7.38;;;6.20;99.90;;;;;;4152779;28;20054;-68
2021/04/23 05:35:30;;;;;;;13.95;6.60;;;6.20;99.90;;;;;;4146872;28;20022;-68
2021/04/23 05:37:30;;;;;;;11.07;5.93;;;6.20;99.90;;;;;;4134652;28;20600;-68
2021/04/23 05:39:31;;;;;;;10.25;6.07;;;6.30;99.90;;;;;;4145199;28;20041;-68
2021/04/23 05:41:32;;;;;;;14.43;7.47;;;6.30;99.90;;;;;;4159500;28;20638;-68
2021/04/23 05:43:32;;;;;;;12.85;6.65;;;6.30;99.90;;;;;;4144051;28;20463;-68
2021/04/23 05:45:34;;;;;;;12.80;6.50;;;6.30;99.90;;;;;;4144844;28;20026;-68
2021/04/23 05:47:36;;;;;;;12.53;6.80;;;6.30;99.90;;;;;;4143409;28;20050;-68
2021/04/23 05:49:36;;;;;;;12.82;6.40;;;6.30;99.90;;;;;;4148009;28;20041;-68
2021/04/23 05:51:38;;;;;;;14.32;6.95;;;6.30;99.90;;;;;;4139951;28;20044;-68
2021/04/23 05:53:38;;;;;;;16.08;6.70;;;6.30;99.90;;;;;;4144383;28;20040;-68
2021/04/23 05:55:40;;;;;;;14.63;8.10;;;6.30;99.90;;;;;;4144934;28;20403;-68
2021/04/23 05:57:41;;;;;;;17.35;7.45;;;6.40;99.90;;;;;;4142915;28;20053;-68
2021/04/23 05:59:41;;;;;;;16.50;7.90;;;6.40;99.90;;;;;;4148005;28;20046;-68
2021/04/23 06:01:42;;;;;;;16.42;7.38;;;6.40;99.90;;;;;;4130665;28;20026;-69
2021/04/23 06:03:42;;;;;;;12.60;7.10;;;6.40;99.90;;;;;;4142665;28;20543;-68
2021/04/23 06:05:43;;;;;;;14.52;7.13;;;6.40;99.90;;;;;;4126389;28;20050;-68
2021/04/23 06:07:44;;;;;;;19.02;7.40;;;6.40;99.90;;;;;;4125400;28;20089;-68
2021/04/23 06:09:45;;;;;;;14.50;7.25;;;6.40;99.90;;;;;;4124803;28;20035;-68
2021/04/23 06:11:46;;;;;;;12.77;7.00;;;6.40;99.90;;;;;;4125817;28;20041;-68
2021/04/23 06:13:47;;;;;;;12.52;6.40;;;6.50;99.90;;;;;;4132232;28;20069;-68
2021/04/23 06:15:48;;;;;;;11.38;6.22;;;6.50;99.90;;;;;;4143195;28;20034;-68
2021/04/23 06:17:49;;;;;;;12.05;6.70;;;6.60;99.90;;;;;;4142426;28;20030;-68
2021/04/23 06:19:50;;;;;;;15.90;6.78;;;6.60;99.90;;;;;;4143149;28;20044;-68
2021/04/23 06:21:51;;;;;;;14.85;6.93;;;6.60;99.90;;;;;;4143263;28;20046;-68
2021/04/23 06:23:52;;;;;;;13.82;6.63;;;6.60;99.90;;;;;;4159066;28;20480;-68
2021/04/23 06:25:53;;;;;;;10.13;6.05;;;6.70;99.90;;;;;;4140408;28;20065;-68
2021/04/23 06:27:54;;;;;;;11.50;6.30;;;6.70;99.90;;;;;;4143420;28;20042;-68
2021/04/23 06:29:54;;;;;;;12.15;5.75;;;6.80;99.90;;;;;;4140684;28;20113;-69
2021/04/23 06:31:56;;;;;;;12.88;5.80;;;6.90;99.90;;;;;;4141584;28;20105;-68
2021/04/23 06:33:56;;;;;;;13.93;7.00;;;6.90;99.90;;;;;;4143153;28;20040;-68
2021/04/23 06:35:57;;;;;;;11.13;6.13;;;7.00;99.90;;;;;;4142452;28;20042;-68
2021/04/23 06:37:58;;;;;;;12.93;5.78;;;7.10;99.90;;;;;;4156993;28;20030;-68
2021/04/23 06:39:59;;;;;;;12.98;5.78;;;7.10;99.90;;;;;;4141567;28;20088;-69
2021/04/23 06:41:59;;;;;;;16.02;5.47;;;7.20;99.90;;;;;;4142740;28;20026;-68
2021/04/23 06:44:00;;;;;;;9.93;5.55;;;7.30;99.90;;;;;;4143460;28;20089;-68
2021/04/23 06:46:01;;;;;;;10.25;5.68;;;7.30;99.90;;;;;;4142136;28;20367;-68
2021/04/23 06:48:02;;;;;;;13.50;5.38;;;7.40;99.90;;;;;;4141980;28;20108;-69
2021/04/23 06:50:05;;;;;;;12.38;5.63;;;7.50;99.90;;;;;;4142888;28;20046;-69
2021/04/23 06:52:06;;;;;;;9.25;4.95;;;7.50;99.90;;;;;;4158268;28;20048;-69
2021/04/23 06:54:07;;;;;;;12.50;5.43;;;7.60;99.90;;;;;;4142395;28;20418;-69
2021/04/23 06:56:08;;;;;;;10.80;5.15;;;7.60;99.90;;;;;;4142425;28;20034;-69
2021/04/23 06:58:09;;;;;;;8.23;4.38;;;7.70;99.90;;;;;;4157428;28;20113;-69
2021/04/23 07:00:16;;;;;;;8.70;4.60;;;7.80;99.90;;;;;;4142385;28;20045;-69
2021/04/23 07:02:16;;;;;;;10.15;4.25;;;7.80;99.90;;;;;;4142039;28;20504;-69
2021/04/23 07:04:17;;;;;;;11.82;5.07;;;7.90;99.90;;;;;;4141276;28;20121;-69
2021/04/23 07:06:18;;;;;;;7.53;3.90;;;7.90;99.90;;;;;;4136964;28;20030;-69
2021/04/23 07:08:18;;;;;;;12.98;4.75;;;7.90;99.90;;;;;;4142401;28;20034;-69
2021/04/23 07:10:22;;;;;;;9.68;4.75;;;8.00;99.90;;;;;;4156397;28;20052;-69
2021/04/23 07:12:23;;;;;;;9.15;4.35;;;8.00;99.90;;;;;;4140701;28;20442;-70
2021/04/23 07:14:24;;;;;;;12.40;4.63;;;8.10;99.90;;;;;;4142585;28;20045;-69
2021/04/23 07:16:25;;;;;;;7.88;4.10;;;8.20;99.90;;;;;;4139245;28;20053;-70
2021/04/23 07:18:27;;;;;;;13.18;4.60;;;8.20;99.90;;;;;;4155564;28;20059;-72
2021/04/23 07:20:28;;;;;;;10.05;4.78;;;8.30;99.90;;;;;;4140492;28;20041;-71
2021/04/23 07:22:28;;;;;;;11.77;4.78;;;8.30;99.90;;;;;;4142210;28;20389;-70
2021/04/23 07:24:30;;;;;;;12.68;5.20;;;8.40;99.90;;;;;;4139943;28;20117;-71
2021/04/23 07:26:31;;;;;;;12.55;4.20;;;8.40;99.90;;;;;;4141928;28;20038;-71
2021/04/23 07:28:31;;;;;;;9.40;4.53;;;8.40;99.90;;;;;;4135519;28;22069;-70
2021/04/23 07:30:37;;;;;;;10.57;4.40;;;8.50;99.90;;;;;;4154775;28;20126;-70
2021/04/23 07:32:38;;;;;;;8.18;3.83;;;8.60;99.90;;;;;;4141152;28;20037;-71
2021/04/23 07:34:39;;;;;;;8.60;3.85;;;8.60;99.90;;;;;;4155315;28;20029;-70
2021/04/23 07:36:39;;;;;;;8.82;3.42;;;8.60;99.90;;;;;;4140776;28;20084;-71
2021/04/23 07:38:40;;;;;;;6.65;3.10;;;8.70;99.90;;;;;;4156529;28;20048;-71
2021/04/23 07:40:42;;;;;;;11.23;3.55;;;8.80;99.90;;;;;;4134246;28;20038;-71
2021/04/23 07:42:43;;;;;;;8.63;3.33;;;8.80;99.90;;;;;;4155521;28;20037;-71
2021/04/23 07:44:43;;;;;;;8.00;2.55;;;8.90;99.90;;;;;;4136600;28;20426;-70
2021/04/23 07:46:44;;;;;;;4.72;2.60;;;9.00;99.90;;;;;;4140946;28;20034;-71
2021/04/23 07:48:45;;;;;;;4.80;2.42;;;9.00;99.90;;;;;;4155686;28;20032;-71
2021/04/23 07:50:45;;;;;;;7.72;2.85;;;9.00;99.90;;;;;;4141332;28;20585;-70
2021/04/23 07:52:46;;;;;;;7.38;2.92;;;9.10;99.90;;;;;;4140980;28;20041;-70
2021/04/23 07:54:47;;;;;;;8.48;2.53;;;9.20;99.90;;;;;;4140897;28;20026;-71
2021/04/23 07:56:48;;;;;;;12.10;3.33;;;9.20;99.90;;;;;;4140242;28;20561;-70
2021/04/23 07:58:48;;;;;;;7.55;2.53;;;9.20;99.90;;;;;;4139945;28;20105;-71
2021/04/23 08:00:49;;;;;;;4.07;2.25;;;9.20;99.90;;;;;;4140718;28;20038;-71
2021/04/23 08:02:51;;;;;;;4.38;2.20;;;9.30;99.90;;;;;;4139681;28;20049;-71
2021/04/23 08:04:52;;;;;;;6.25;3.00;;;9.30;99.90;;;;;;4140197;28;20054;-70
2021/04/23 08:06:53;;;;;;;10.20;3.00;;;9.30;99.90;;;;;;4141015;28;20451;-70
2021/04/23 08:08:53;;;;;;;5.22;3.35;;;9.30;99.90;;;;;;4155015;28;20039;-71
2021/04/23 08:10:54;;;;;;;12.13;3.60;;;9.30;99.90;;;;;;4141408;28;20030;-70
2021/04/23 08:12:55;;;;;;;8.93;3.80;;;9.20;99.90;;;;;;4138345;28;20437;-70
2021/04/23 08:14:56;;;;;;;7.38;2.90;;;9.20;99.90;;;;;;4152993;28;20096;-70
2021/04/23 08:16:57;;;;;;;7.28;3.20;;;9.30;99.90;;;;;;4153275;28;20050;-70
2021/04/23 08:18:57;;;;;;;9.45;3.40;;;9.30;99.90;;;;;;4140502;28;20038;-70
2021/04/23 08:20:58;;;;;;;7.38;2.90;;;9.30;99.90;;;;;;4140807;28;20050;-70
2021/04/23 08:22:58;;;;;;;8.25;2.90;;;9.40;99.90;;;;;;4142099;28;20037;-70
2021/04/23 08:24:59;;;;;;;7.47;2.70;;;9.50;99.90;;;;;;4155307;28;20088;-70
2021/04/23 08:27:00;;;;;;;7.88;3.47;;;9.60;99.90;;;;;;4140531;28;20034;-70
2021/04/23 08:29:01;;;;;;;8.20;3.10;;;9.60;99.90;;;;;;4142013;28;20033;-70
2021/04/23 08:31:02;;;;;;;8.38;3.05;;;9.70;99.90;;;;;;4137313;28;20450;-70
2021/04/23 08:33:03;;;;;;;11.80;3.53;;;9.70;99.90;;;;;;4144738;28;20100;-70
2021/04/23 08:35:04;;;;;;;15.02;3.05;;;9.90;99.90;;;;;;4167519;28;20033;-70
2021/04/23 08:37:05;;;;;;;8.52;3.00;;;10.00;99.90;;;;;;4157544;28;20152;-70
2021/04/23 08:39:08;;;;;;;10.68;3.88;;;10.10;99.90;;;;;;4144339;28;20037;-70
2021/04/23 08:41:10;;;;;;;6.70;3.08;;;10.10;99.90;;;;;;4143170;28;20060;-70
2021/04/23 08:43:10;;;;;;;11.38;3.78;;;10.10;99.90;;;;;;4140772;28;20029;-70
2021/04/23 08:45:16;;;;;;;8.13;3.45;;;10.30;99.90;;;;;;4144456;28;20470;-70
2021/04/23 08:47:18;;;;;;;6.35;3.58;;;10.30;99.90;;;;;;4142106;28;20030;-70
2021/04/23 08:49:20;;;;;;;10.95;3.28;;;10.50;99.90;;;;;;4143138;28;20099;-70
2021/04/23 08:51:22;;;;;;;6.10;2.97;;;10.60;99.90;;;;;;4158504;28;20037;-70
2021/04/23 08:53:26;;;;;;;5.07;2.40;;;10.80;99.90;;;;;;4142134;28;20046;-70
2021/04/23 08:55:27;;;;;;;6.50;2.50;;;10.70;99.90;;;;;;4137075;28;20320;-70
2021/04/23 08:57:28;;;;;;;9.07;3.25;;;10.80;99.90;;;;;;4144371;28;20034;-70
2021/04/23 08:59:29;;;;;;;9.05;3.40;;;10.90;99.90;;;;;;4144515;28;20080;-70
2021/04/23 09:01:29;;;;;;;7.07;3.28;;;11.10;99.90;;;;;;4143857;28;20033;-70
2021/04/23 09:03:30;;;;;;;10.63;3.85;;;11.20;99.90;;;;;;4144460;28;20037;-70
2021/04/23 09:05:30;;;;;;;10.38;3.85;;;11.20;99.90;;;;;;4144428;28;20092;-70
2021/04/23 09:07:32;;;;;;;8.48;3.35;;;11.10;99.90;;;;;;4142780;28;20031;-70
2021/04/23 09:09:35;;;;;;;10.00;3.30;;;11.00;99.90;;;;;;4143303;28;20049;-70
2021/04/23 09:11:43;;;;;;;7.05;3.55;;;11.10;99.90;;;;;;4143966;28;20034;-70
2021/04/23 09:13:51;;;;;;;9.35;3.17;;;11.30;99.90;;;;;;4143781;28;20391;-70
2021/04/23 09:15:55;;;;;;;7.68;2.85;;;11.40;99.90;;;;;;4143075;28;20034;-70
2021/04/23 09:18:12;;;;;;;7.68;2.72;;;11.50;99.90;;;;;;4156115;28;20099;-70
2021/04/23 09:20:25;;;;;;;6.68;3.15;;;11.70;99.90;;;;;;4155447;28;20096;-71
2021/04/23 09:22:27;;;;;;;;;;;11.70;99.90;;;;;;4144295;28;20034;-70
2021/04/23 09:24:43;;;;;;;5.38;2.40;;;11.80;99.90;;;;;;4143985;28;19909;-70
2021/04/23 09:26:43;;;;;;;5.18;2.33;;;11.80;99.90;;;;;;4127903;28;20097;-70
2021/04/23 09:28:44;;;;;;;6.10;2.35;;;11.80;99.90;;;;;;4142265;28;20447;-70
2021/04/23 09:30:46;;;;;;;6.53;2.50;;;11.80;99.90;;;;;;4127757;28;20065;-70
2021/04/23 09:32:48;;;;;;;7.53;2.58;;;11.90;99.90;;;;;;4141485;28;20196;-70
2021/04/23 09:35:14;;;;;;;6.07;2.65;;;12.00;99.90;;;;;;4143599;28;20030;-70
2021/04/23 09:37:16;;;;;;;6.60;3.03;;;12.20;99.90;;;;;;4132954;28;20522;-70
2021/04/23 09:39:24;;;;;;;7.55;2.80;;;12.20;99.90;;;;;;4128449;28;20050;-70
2021/04/23 09:41:25;;;;;;;7.93;2.60;;;12.30;99.90;;;;;;4134798;28;20076;-70
2021/04/23 09:43:37;;;;;;;7.32;2.90;;;12.40;99.90;;;;;;4142423;28;20041;-70
2021/04/23 09:45:52;;;;;;;6.70;2.50;;;12.50;99.90;;;;;;4138462;28;20364;-70
2021/04/23 09:47:54;;;;;;;6.95;2.40;;;12.50;99.90;;;;;;4142475;28;20029;-70
2021/04/23 09:49:59;;;;;;;6.77;2.47;;;12.60;99.90;;;;;;4142404;28;20034;-70
2021/04/23 09:52:03;;;;;;;5.72;2.35;;;12.70;99.60;;;;;;4160252;28;20339;-70
2021/04/23 09:54:24;;;;;;;12.77;3.42;;;12.80;99.90;;;;;;4136236;28;20111;-70
2021/04/23 09:56:34;;;;;;;7.72;2.58;;;12.80;99.90;;;;;;4140425;28;20029;-70
2021/04/23 09:58:34;;;;;;;4.85;2.30;;;12.90;99.90;;;;;;4139957;28;20038;-70
2021/04/23 10:00:44;;;;;;;6.22;2.00;;;12.90;95.30;;;;;;4143492;28;20041;-70
2021/04/23 10:02:49;;;;;;;4.82;2.33;;;12.90;97.70;;;;;;4155045;28;20448;-70
2021/04/23 10:04:51;;;;;;;7.78;2.42;;;12.90;95.90;;;;;;4142994;28;20034;-70
2021/04/23 10:07:12;;;;;;;10.18;3.00;;;13.00;97.80;;;;;;4141117;28;20064;-70
2021/04/23 10:09:12;;;;;;;8.25;3.25;;;13.00;92.70;;;;;;4157848;28;20049;-70
2021/04/23 10:11:13;;;;;;;5.80;2.63;;;12.80;92.30;;;;;;4140840;28;20026;-70
2021/04/23 10:13:16;;;;;;;5.85;2.55;;;12.80;96.10;;;;;;4143275;28;20069;-70
2021/04/23 10:15:22;;;;;;;10.07;2.90;;;12.90;98.40;;;;;;4142294;28;20085;-70
2021/04/23 10:17:23;;;;;;;8.38;2.75;;;12.90;96.50;;;;;;4164685;28;20030;-70
2021/04/23 10:19:24;;;;;;;5.35;2.53;;;12.70;94.90;;;;;;4140904;28;20072;-71
2021/04/23 10:21:25;;;;;;;7.00;2.30;;;12.90;99.60;;;;;;4124130;28;20378;-70
2021/04/23 10:23:28;;;;;;;6.68;2.55;;;13.00;99.90;;;;;;4133687;28;20044;-70
2021/04/23 10:25:29;;;;;;;7.90;2.67;;;13.10;98.70;;;;;;4153650;28;20107;-70
2021/04/23 10:27:33;;;;;;;8.52;2.50;;;13.10;95.50;;;;;;4141351;28;20037;-70
2021/04/23 10:29:36;;;;;;;5.90;2.05;;;13.20;95.80;;;;;;4142372;28;20041;-70
2021/04/23 10:31:37;;;;;;;7.25;2.45;;;13.30;97.20;;;;;;4141887;28;20125;-70
2021/04/23 10:33:38;;;;;;;6.60;2.72;;;13.20;95.60;;;;;;4142269;28;20041;-70
2021/04/23 10:35:44;;;;;;;6.15;2.53;;;13.30;98.80;;;;;;4142460;28;20038;-70
2021/04/23 10:37:46;;;;;;;10.10;2.75;;;13.40;97.80;;;;;;4156288;28;20041;-70
2021/04/23 10:39:47;;;;;;;6.10;2.25;;;13.40;97.80;;;;;;4141359;28;20069;-70
2021/04/23 10:41:48;;;;;;;8.18;2.75;;;13.50;96.50;;;;;;4142271;28;20041;-70
2021/04/23 10:43:54;;;;;;;7.70;2.50;;;13.50;95.20;;;;;;4142008;28;20483;-70
2021/04/23 10:46:11;;;;;;;7.63;2.42;;;13.50;97.70;;;;;;4142245;28;20038;-70